createdAt,value
2018-10-09T00:01:55.233Z,13.00
2018-10-09T00:04:23.729Z,13.00
2018-10-09T00:06:51.537Z,12.90
2018-10-09T00:09:19.342Z,13.00
2018-10-09T00:11:47.196Z,12.90
2018-10-09T00:14:14.854Z,13.00
2018-10-09T00:16:42.521Z,12.90
2018-10-09T00:19:10.198Z,12.80
2018-10-09T00:21:39.285Z,12.70
2018-10-09T00:24:07.473Z,12.60
2018-10-09T00:26:36.001Z,12.70
2018-10-09T00:29:04.309Z,12.80
2018-10-09T00:31:32.716Z,12.90
2018-10-09T00:34:00.459Z,12.90
2018-10-09T00:36:28.130Z,12.90
2018-10-09T00:38:56.922Z,12.80
2018-10-09T00:41:24.904Z,12.70
2018-10-09T00:43:52.581Z,12.70
2018-10-09T00:46:20.368Z,12.60
2018-10-09T00:48:48.177Z,12.60
2018-10-09T00:51:16.116Z,12.60
2018-10-09T00:53:43.906Z,12.60
2018-10-09T00:56:11.629Z,12.30
2018-10-09T00:58:40.059Z,12.40
2018-10-09T01:01:08.227Z,12.50
2018-10-09T01:03:37.270Z,12.50
2018-10-09T01:06:05.992Z,12.50
2018-10-09T01:08:33.802Z,12.30
2018-10-09T01:11:02.037Z,12.40
2018-10-09T01:13:30.139Z,12.30
2018-10-09T01:15:57.916Z,12.20
2018-10-09T01:18:25.783Z,12.20
2018-10-09T01:20:53.478Z,12.20
2018-10-09T01:23:21.286Z,12.10
2018-10-09T01:25:49.054Z,12.10
2018-10-09T01:28:16.815Z,12.10
2018-10-09T01:30:44.534Z,12.30
2018-10-09T01:33:12.508Z,12.40
2018-10-09T01:35:41.204Z,12.30
2018-10-09T01:38:08.876Z,12.20
2018-10-09T01:40:36.570Z,12.30
2018-10-09T01:43:04.407Z,12.30
2018-10-09T01:45:32.807Z,12.10
2018-10-09T01:48:00.480Z,12.20
2018-10-09T01:50:28.141Z,12.10
2018-10-09T01:52:55.806Z,12.00
2018-10-09T01:55:23.675Z,12.10
2018-10-09T01:57:51.383Z,12.40
2018-10-09T02:00:19.439Z,12.80
2018-10-09T02:02:48.149Z,13.20
2018-10-09T02:05:15.824Z,13.60
2018-10-09T02:07:43.990Z,14.30
2018-10-09T02:10:13.000Z,14.80
2018-10-09T02:12:40.740Z,14.90
2018-10-09T02:15:08.625Z,14.80
2018-10-09T02:17:36.366Z,14.60
2018-10-09T02:20:05.499Z,14.40
2018-10-09T02:22:33.827Z,14.10
2018-10-09T02:25:02.317Z,14.10
2018-10-09T02:27:30.260Z,13.90
2018-10-09T02:29:57.967Z,13.70
2018-10-09T02:32:25.746Z,13.50
2018-10-09T02:34:53.563Z,13.40
2018-10-09T02:37:22.178Z,13.20
2018-10-09T02:39:50.054Z,13.10
2018-10-09T02:42:17.854Z,13.00
2018-10-09T02:44:45.753Z,12.80
2018-10-09T02:47:13.489Z,12.60
2018-10-09T02:49:41.398Z,12.50
2018-10-09T02:52:09.168Z,12.50
2018-10-09T02:54:37.463Z,12.50
2018-10-09T02:57:05.198Z,12.30
2018-10-09T02:59:33.808Z,12.30
2018-10-09T03:02:02.368Z,12.20
2018-10-09T03:04:30.265Z,12.20
2018-10-09T03:06:58.215Z,12.20
2018-10-09T03:09:25.858Z,12.10
2018-10-09T03:11:53.633Z,12.00
2018-10-09T03:14:21.326Z,12.00
2018-10-09T03:16:48.988Z,11.80
2018-10-09T03:19:16.744Z,11.80
2018-10-09T03:21:44.474Z,11.80
2018-10-09T03:24:12.236Z,11.90
2018-10-09T03:26:39.904Z,11.80
2018-10-09T03:29:07.652Z,11.70
2018-10-09T03:31:36.055Z,11.80
2018-10-09T03:34:03.801Z,11.80
2018-10-09T03:36:31.483Z,11.80
2018-10-09T03:38:59.344Z,11.80
2018-10-09T03:41:31.575Z,11.80
2018-10-09T03:43:59.519Z,11.70
2018-10-09T03:46:27.262Z,11.60
2018-10-09T03:48:55.832Z,11.50
2018-10-09T03:51:23.544Z,11.60
2018-10-09T03:53:51.328Z,11.50
2018-10-09T03:56:19.124Z,11.50
2018-10-09T03:58:46.852Z,11.40
2018-10-09T04:01:15.444Z,11.40
2018-10-09T04:03:43.097Z,11.40
2018-10-09T04:06:10.992Z,11.40
2018-10-09T04:08:38.877Z,11.50
2018-10-09T04:11:06.989Z,11.50
2018-10-09T04:13:36.381Z,11.50
2018-10-09T04:16:04.143Z,11.50
2018-10-09T04:18:31.908Z,11.40
2018-10-09T04:20:59.701Z,11.40
2018-10-09T04:23:27.511Z,11.60
2018-10-09T04:25:55.528Z,11.60
2018-10-09T04:28:23.465Z,11.40
2018-10-09T04:30:51.444Z,11.30
2018-10-09T04:33:19.920Z,11.30
2018-10-09T04:35:47.823Z,11.30
2018-10-09T04:38:16.194Z,11.30
2018-10-09T04:40:44.060Z,11.30
2018-10-09T04:43:11.923Z,11.40
2018-10-09T04:45:39.761Z,11.40
2018-10-09T04:48:07.485Z,11.40
2018-10-09T04:50:39.817Z,11.30
2018-10-09T04:53:12.272Z,11.30
2018-10-09T04:55:40.161Z,11.20
2018-10-09T04:58:07.980Z,11.10
2018-10-09T05:00:36.655Z,11.10
2018-10-09T05:03:05.234Z,11.20
2018-10-09T05:05:33.673Z,11.10
2018-10-09T05:08:02.477Z,11.20
2018-10-09T05:10:30.431Z,11.10
2018-10-09T05:12:59.106Z,11.10
2018-10-09T05:15:26.873Z,11.10
2018-10-09T05:17:54.854Z,11.10
2018-10-09T05:20:22.521Z,11.00
2018-10-09T05:22:50.370Z,11.00
2018-10-09T05:25:18.182Z,10.90
2018-10-09T05:27:46.818Z,10.90
2018-10-09T05:30:15.117Z,10.90
2018-10-09T05:32:47.755Z,10.90
2018-10-09T05:35:15.563Z,10.90
2018-10-09T05:37:44.396Z,10.90
2018-10-09T05:40:12.276Z,10.90
2018-10-09T05:42:40.158Z,10.80
2018-10-09T05:45:08.542Z,10.70
2018-10-09T05:47:36.392Z,10.70
2018-10-09T05:50:05.645Z,10.70
2018-10-09T05:52:33.520Z,10.60
2018-10-09T05:55:01.458Z,10.50
2018-10-09T05:57:29.360Z,10.50
2018-10-09T06:00:03.535Z,10.50
2018-10-09T06:02:31.175Z,10.50
2018-10-09T06:04:59.374Z,10.50
2018-10-09T06:07:27.343Z,10.50
2018-10-09T06:09:55.040Z,10.50
2018-10-09T06:12:22.914Z,10.50
2018-10-09T06:14:50.752Z,10.60
2018-10-09T06:17:18.777Z,10.60
2018-10-09T06:19:46.539Z,10.60
2018-10-09T06:22:15.113Z,10.60
2018-10-09T06:24:42.994Z,10.60
2018-10-09T06:27:11.764Z,10.60
2018-10-09T06:32:32.727Z,10.70
2018-10-09T06:35:01.442Z,10.80
2018-10-09T06:37:29.459Z,10.90
2018-10-09T06:39:57.896Z,11.00
2018-10-09T06:42:25.838Z,11.10
2018-10-09T06:44:54.268Z,11.10
2018-10-09T06:47:22.013Z,11.30
2018-10-09T06:49:49.927Z,11.40
2018-10-09T06:52:17.846Z,11.40
2018-10-09T06:54:45.689Z,11.50
2018-10-09T06:57:13.398Z,11.70
2018-10-09T06:59:41.237Z,11.80
2018-10-09T07:02:09.647Z,11.80
2018-10-09T07:04:37.493Z,11.90
2018-10-09T07:07:06.913Z,12.10
2018-10-09T07:09:34.764Z,12.20
2018-10-09T07:12:02.512Z,12.40
2018-10-09T07:14:30.403Z,12.60
2018-10-09T07:16:58.263Z,12.80
2018-10-09T07:19:26.234Z,12.90
2018-10-09T07:21:54.147Z,13.00
2018-10-09T07:24:23.327Z,12.90
2018-10-09T07:26:51.838Z,12.80
2018-10-09T07:29:19.878Z,12.90
2018-10-09T07:31:48.684Z,12.80
2018-10-09T07:34:16.452Z,12.80
2018-10-09T07:36:45.238Z,12.90
2018-10-09T07:39:13.594Z,13.00
2018-10-09T07:41:42.260Z,13.10
2018-10-09T07:44:10.379Z,13.30
2018-10-09T07:46:38.437Z,13.50
2018-10-09T07:49:06.904Z,13.60
2018-10-09T07:51:41.232Z,13.70
2018-10-09T07:54:09.194Z,13.70
2018-10-09T07:56:37.438Z,13.90
2018-10-09T07:59:07.686Z,14.10
2018-10-09T08:01:36.271Z,14.30
2018-10-09T08:04:05.160Z,14.60
2018-10-09T08:06:33.399Z,14.90
2018-10-09T08:09:01.582Z,15.00
2018-10-09T08:11:29.306Z,15.00
2018-10-09T08:13:57.698Z,15.00
2018-10-09T08:16:26.813Z,15.00
2018-10-09T08:18:55.102Z,14.90
2018-10-09T08:21:23.809Z,14.80
2018-10-09T08:23:51.537Z,14.90
2018-10-09T08:26:19.214Z,15.00
2018-10-09T08:28:47.688Z,15.30
2018-10-09T08:31:15.662Z,15.40
2018-10-09T08:33:43.581Z,15.40
2018-10-09T08:36:12.009Z,15.20
2018-10-09T08:38:40.475Z,15.30
2018-10-09T08:41:08.641Z,15.50
2018-10-09T08:43:36.562Z,15.70
2018-10-09T08:46:04.497Z,15.80
2018-10-09T08:48:32.409Z,15.70
2018-10-09T08:51:00.199Z,15.70
2018-10-09T08:53:28.263Z,15.70
2018-10-09T08:55:56.468Z,15.90
2018-10-09T08:58:24.273Z,16.10
2018-10-09T09:00:52.659Z,16.20
2018-10-09T09:03:21.389Z,16.40
2018-10-09T09:05:49.726Z,16.50
2018-10-09T09:08:17.859Z,16.70
2018-10-09T09:10:46.296Z,16.50
2018-10-09T09:13:14.583Z,16.90
2018-10-09T09:15:42.386Z,17.20
2018-10-09T09:18:10.265Z,16.90
2018-10-09T09:20:38.269Z,16.80
2018-10-09T09:23:06.587Z,17.00
2018-10-09T09:25:34.368Z,17.30
2018-10-09T09:28:02.250Z,17.40
2018-10-09T09:30:30.627Z,17.10
2018-10-09T09:32:58.632Z,16.90
2018-10-09T09:35:28.323Z,17.00
2018-10-09T09:37:55.969Z,17.40
2018-10-09T09:40:23.810Z,17.80
2018-10-09T09:42:51.493Z,17.80
2018-10-09T09:45:19.349Z,17.90
2018-10-09T09:47:47.203Z,18.10
2018-10-09T09:50:15.457Z,18.60
2018-10-09T09:52:43.257Z,19.00
2018-10-09T09:55:10.933Z,18.80
2018-10-09T09:57:38.597Z,18.80
2018-10-09T10:00:11.065Z,18.60
2018-10-09T10:02:39.381Z,18.90
2018-10-09T10:05:07.126Z,19.40
2018-10-09T10:07:35.591Z,19.90
2018-10-09T10:10:03.622Z,20.40
2018-10-09T10:12:31.998Z,20.60
2018-10-09T10:14:59.719Z,20.60
2018-10-09T10:17:27.657Z,20.70
2018-10-09T10:19:55.278Z,20.80
2018-10-09T10:22:24.515Z,20.90
2018-10-09T10:24:52.561Z,20.70
2018-10-09T10:27:21.021Z,20.50
2018-10-09T10:29:49.540Z,20.50
2018-10-09T10:32:17.322Z,20.50
2018-10-09T10:34:45.071Z,20.60
2018-10-09T10:37:13.685Z,20.70
2018-10-09T10:39:41.544Z,20.60
2018-10-09T10:42:09.990Z,20.70
2018-10-09T10:44:37.813Z,20.40
2018-10-09T10:47:05.734Z,19.80
2018-10-09T10:49:34.099Z,19.80
2018-10-09T10:52:01.862Z,20.00
2018-10-09T10:54:29.585Z,19.90
2018-10-09T10:56:57.667Z,20.00
2018-10-09T10:59:25.990Z,19.90
2018-10-09T11:01:54.773Z,19.80
2018-10-09T11:04:23.070Z,19.80
2018-10-09T11:06:50.889Z,20.00
2018-10-09T11:09:18.614Z,20.50
2018-10-09T11:11:46.413Z,20.80
2018-10-09T11:14:14.330Z,20.70
2018-10-09T11:16:42.009Z,20.70
2018-10-09T11:19:10.343Z,20.90
2018-10-09T11:21:38.095Z,20.80
2018-10-09T11:24:06.047Z,20.80
2018-10-09T11:26:33.640Z,21.00
2018-10-09T11:29:01.479Z,21.20
2018-10-09T11:31:29.463Z,21.10
2018-10-09T11:33:57.375Z,20.90
2018-10-09T11:36:25.666Z,20.60
2018-10-09T11:38:53.691Z,20.50
2018-10-09T11:41:21.371Z,20.50
2018-10-09T11:43:50.233Z,20.50
2018-10-09T11:46:22.454Z,20.40
2018-10-09T11:48:50.970Z,20.30
2018-10-09T11:51:18.899Z,20.20
2018-10-09T11:53:46.610Z,20.20
2018-10-09T11:56:14.487Z,20.10
2018-10-09T11:58:43.526Z,20.10
2018-10-09T12:01:11.809Z,20.00
2018-10-09T12:03:40.244Z,19.80
2018-10-09T12:06:08.014Z,19.60
2018-10-09T12:08:36.619Z,19.60
2018-10-09T12:11:08.796Z,19.60
2018-10-09T12:13:36.472Z,19.50
2018-10-09T12:16:04.335Z,19.50
2018-10-09T12:18:32.870Z,19.50
2018-10-09T12:21:00.960Z,19.50
2018-10-09T12:23:29.006Z,19.70
2018-10-09T12:25:56.994Z,20.00
2018-10-09T12:28:25.070Z,20.20
2018-10-09T12:30:52.915Z,20.40
2018-10-09T12:33:20.769Z,20.50
2018-10-09T12:35:48.452Z,20.40
2018-10-09T12:38:16.355Z,20.40
2018-10-09T12:40:44.205Z,20.40
2018-10-09T12:43:12.076Z,20.60
2018-10-09T12:45:39.985Z,20.80
2018-10-09T12:48:08.513Z,21.10
2018-10-09T12:50:41.547Z,21.60
2018-10-09T12:53:09.466Z,22.10
2018-10-09T12:55:37.540Z,22.20
2018-10-09T12:58:05.874Z,22.30
2018-10-09T13:00:34.777Z,22.50
2018-10-09T13:03:03.697Z,22.60
2018-10-09T13:05:31.718Z,22.70
2018-10-09T13:07:59.506Z,22.70
2018-10-09T13:10:27.151Z,22.80
2018-10-09T13:12:55.771Z,23.00
2018-10-09T13:15:23.667Z,23.20
2018-10-09T13:17:51.550Z,22.70
2018-10-09T13:20:19.753Z,22.70
2018-10-09T13:22:47.555Z,23.00
2018-10-09T13:25:15.507Z,23.10
2018-10-09T13:27:43.261Z,22.90
2018-10-09T13:30:15.062Z,22.90
2018-10-09T13:32:42.769Z,23.00
2018-10-09T13:35:10.602Z,23.10
2018-10-09T13:37:38.530Z,23.20
2018-10-09T13:40:06.321Z,23.20
2018-10-09T13:42:34.608Z,23.40
2018-10-09T13:45:02.577Z,23.60
2018-10-09T13:47:30.501Z,23.40
2018-10-09T13:49:58.453Z,23.40
2018-10-09T13:52:26.296Z,23.70
2018-10-09T13:54:53.939Z,23.90
2018-10-09T13:57:21.991Z,24.00
2018-10-09T13:59:49.706Z,23.70
2018-10-09T14:02:17.511Z,23.40
2018-10-09T14:04:45.225Z,23.00
2018-10-09T14:07:13.491Z,23.00
2018-10-09T14:09:45.814Z,23.10
2018-10-09T14:12:13.530Z,23.40
2018-10-09T14:14:41.442Z,23.40
2018-10-09T14:17:10.092Z,23.50
2018-10-09T14:19:37.805Z,23.60
2018-10-09T14:22:05.628Z,23.30
2018-10-09T14:24:33.325Z,22.90
2018-10-09T14:27:01.843Z,22.70
2018-10-09T14:29:30.531Z,22.60
2018-10-09T14:32:00.359Z,22.60
2018-10-09T14:34:32.782Z,22.50
2018-10-09T14:37:02.015Z,22.60
2018-10-09T14:39:29.961Z,22.60
2018-10-09T14:41:57.770Z,22.80
2018-10-09T14:44:25.430Z,22.90
2018-10-09T14:46:53.033Z,22.90
2018-10-09T14:49:20.944Z,22.80
2018-10-09T14:51:48.665Z,22.80
2018-10-09T14:54:16.616Z,22.80
2018-10-09T14:56:44.693Z,22.80
2018-10-09T14:59:12.447Z,22.70
2018-10-09T15:01:40.498Z,22.50
2018-10-09T15:04:08.314Z,22.10
2018-10-09T15:06:36.824Z,21.90
2018-10-09T15:09:09.450Z,21.70
2018-10-09T15:11:37.118Z,21.60
2018-10-09T15:14:04.958Z,21.40
2018-10-09T15:16:32.694Z,21.40
2018-10-09T15:19:00.475Z,21.30
2018-10-09T15:21:28.189Z,21.20
2018-10-09T15:23:56.604Z,21.20
2018-10-09T15:26:24.354Z,21.10
2018-10-09T15:28:52.315Z,21.10
2018-10-09T15:31:20.153Z,21.10
2018-10-09T15:33:48.103Z,21.10
2018-10-09T15:36:15.903Z,21.00
2018-10-09T15:38:43.627Z,21.00
2018-10-09T15:41:11.462Z,21.00
2018-10-09T15:43:39.091Z,21.00
2018-10-09T15:46:07.010Z,20.90
2018-10-09T15:48:34.713Z,20.90
2018-10-09T15:51:02.539Z,20.90
2018-10-09T15:53:30.385Z,20.90
2018-10-09T15:55:58.260Z,20.90
2018-10-09T15:58:26.103Z,20.80
2018-10-09T16:00:54.518Z,20.80
2018-10-09T16:03:23.200Z,20.80
2018-10-09T16:05:52.394Z,20.70
2018-10-09T16:08:21.001Z,20.70
2018-10-09T16:10:49.887Z,20.50
2018-10-09T16:13:18.185Z,20.50
2018-10-09T16:15:46.939Z,20.40
2018-10-09T16:18:14.661Z,20.20
2018-10-09T16:20:42.488Z,20.00
2018-10-09T16:23:10.589Z,19.70
2018-10-09T16:25:38.651Z,19.60
2018-10-09T16:28:06.827Z,19.40
2018-10-09T16:30:34.695Z,19.20
2018-10-09T16:33:02.604Z,19.00
2018-10-09T16:35:30.372Z,18.80
2018-10-09T16:37:58.144Z,18.80
2018-10-09T16:40:26.198Z,18.70
2018-10-09T16:42:53.934Z,18.50
2018-10-09T16:45:22.249Z,18.40
2018-10-09T16:47:51.509Z,18.30
2018-10-09T16:50:19.296Z,18.20
2018-10-09T16:52:47.095Z,18.10
2018-10-09T16:55:14.937Z,18.00
2018-10-09T16:57:42.769Z,17.90
2018-10-09T17:00:10.529Z,17.80
2018-10-09T17:02:38.298Z,17.40
2018-10-09T17:05:06.202Z,17.60
2018-10-09T17:07:33.850Z,17.40
2018-10-09T17:10:01.632Z,17.40
2018-10-09T17:12:29.419Z,17.20
2018-10-09T17:14:57.569Z,17.20
2018-10-09T17:17:25.790Z,17.00
2018-10-09T17:19:53.657Z,17.10
2018-10-09T17:22:21.787Z,17.10
2018-10-09T17:24:49.639Z,17.00
2018-10-09T17:27:17.727Z,17.00
2018-10-09T17:29:45.877Z,16.80
2018-10-09T17:32:13.734Z,16.70
2018-10-09T17:34:41.431Z,16.70
2018-10-09T17:37:09.230Z,16.90
2018-10-09T17:39:37.314Z,16.90
2018-10-09T17:42:05.305Z,16.90
2018-10-09T17:44:33.761Z,16.90
2018-10-09T17:47:07.484Z,16.90
2018-10-09T17:49:38.581Z,17.10
2018-10-09T17:52:06.838Z,17.10
2018-10-09T17:54:34.762Z,17.20
2018-10-09T17:57:02.714Z,17.40
2018-10-09T17:59:30.515Z,17.40
2018-10-09T18:01:58.316Z,17.40
2018-10-09T18:04:26.183Z,17.30
2018-10-09T18:06:53.895Z,17.40
2018-10-09T18:09:21.936Z,17.30
2018-10-09T18:11:49.786Z,17.20
2018-10-09T18:14:17.530Z,17.10
2018-10-09T18:16:45.449Z,17.30
2018-10-09T18:19:13.162Z,17.40
2018-10-09T18:21:45.506Z,17.40
2018-10-09T18:24:13.255Z,17.80
2018-10-09T18:26:41.247Z,17.90
2018-10-09T18:29:09.124Z,18.00
2018-10-09T18:31:36.991Z,18.00
2018-10-09T18:34:04.784Z,18.00
2018-10-09T18:36:33.383Z,18.00
2018-10-09T18:39:01.416Z,17.90
2018-10-09T18:41:29.475Z,17.80
2018-10-09T18:43:57.086Z,17.70
2018-10-09T18:46:24.856Z,17.70
2018-10-09T18:48:52.609Z,17.50
2018-10-09T18:51:20.427Z,17.40
2018-10-09T18:53:48.841Z,17.20
2018-10-09T18:56:17.126Z,17.10
2018-10-09T18:58:45.464Z,17.00
2018-10-09T19:01:13.637Z,17.30
2018-10-09T19:03:41.870Z,17.30
2018-10-09T19:06:10.160Z,17.30
2018-10-09T19:08:38.406Z,17.20
2018-10-09T19:11:06.386Z,17.10
2018-10-09T19:13:34.755Z,17.00
2018-10-09T19:16:08.947Z,16.80
2018-10-09T19:18:36.802Z,16.70
2018-10-09T19:21:04.897Z,16.60
2018-10-09T19:23:32.776Z,16.50
2018-10-09T19:26:01.070Z,16.40
2018-10-09T19:28:28.834Z,16.30
2018-10-09T19:31:00.490Z,16.20
2018-10-09T19:33:29.375Z,16.10
2018-10-09T19:35:57.222Z,15.90
2018-10-09T19:38:25.010Z,15.80
2018-10-09T19:40:52.857Z,15.60
2018-10-09T19:43:20.763Z,15.70
2018-10-09T19:45:49.109Z,15.70
2018-10-09T19:48:16.980Z,15.70
2018-10-09T19:50:44.776Z,15.60
2018-10-09T19:53:12.599Z,15.60
2018-10-09T19:55:40.447Z,15.70
2018-10-09T19:58:08.218Z,15.60
2018-10-09T20:00:36.131Z,15.50
2018-10-09T20:03:03.893Z,15.60
2018-10-09T20:05:32.203Z,15.60
2018-10-09T20:08:00.053Z,15.50
2018-10-09T20:10:28.823Z,15.50
2018-10-09T20:12:56.572Z,15.30
2018-10-09T20:15:24.851Z,15.20
2018-10-09T20:17:52.794Z,15.20
2018-10-09T20:20:21.212Z,15.10
2018-10-09T20:22:49.307Z,15.10
2018-10-09T20:25:16.891Z,15.10
2018-10-09T20:27:44.914Z,15.00
2018-10-09T20:30:12.800Z,14.90
2018-10-09T20:32:40.537Z,15.00
2018-10-09T20:35:08.202Z,15.10
2018-10-09T20:37:35.966Z,15.10
2018-10-09T20:40:03.939Z,15.10
2018-10-09T20:42:32.034Z,15.00
2018-10-09T20:45:00.810Z,15.00
2018-10-09T20:47:34.207Z,14.90
2018-10-09T20:50:01.932Z,14.80
2018-10-09T20:52:30.665Z,14.80
2018-10-09T20:54:58.680Z,14.80
2018-10-09T20:57:26.803Z,14.80
2018-10-09T20:59:54.806Z,14.70
2018-10-09T21:02:22.803Z,14.70
2018-10-09T21:04:50.718Z,14.60
2018-10-09T21:07:18.501Z,14.50
2018-10-09T21:09:46.323Z,14.40
2018-10-09T21:12:14.617Z,14.50
2018-10-09T21:14:42.260Z,14.40
2018-10-09T21:17:10.482Z,14.30
2018-10-09T21:19:38.482Z,14.40
2018-10-09T21:22:06.270Z,14.50
2018-10-09T21:24:35.237Z,14.40
2018-10-09T21:27:03.016Z,14.30
2018-10-09T21:29:30.708Z,14.40
2018-10-09T21:31:58.439Z,14.40
2018-10-09T21:34:26.138Z,14.30
2018-10-09T21:36:53.717Z,14.20
2018-10-09T21:39:21.362Z,14.20
2018-10-09T21:41:49.199Z,14.30
2018-10-09T21:44:16.968Z,14.40
2018-10-09T21:46:44.685Z,14.20
2018-10-09T21:49:12.296Z,14.30
2018-10-09T21:51:40.061Z,14.20
2018-10-09T21:54:07.692Z,14.10
2018-10-09T21:56:35.319Z,14.20
2018-10-09T21:59:02.961Z,14.20
2018-10-09T22:01:30.626Z,14.10
2018-10-09T22:03:58.208Z,14.20
2018-10-09T22:06:26.585Z,14.10
2018-10-09T22:08:54.262Z,14.10
2018-10-09T22:11:22.019Z,14.10
2018-10-09T22:13:49.661Z,14.10
2018-10-09T22:16:17.392Z,14.10
2018-10-09T22:18:45.149Z,13.90
2018-10-09T22:21:12.729Z,13.80
2018-10-09T22:23:40.552Z,13.80
2018-10-09T22:26:08.243Z,13.80
2018-10-09T22:28:35.960Z,13.80
2018-10-09T22:31:03.971Z,13.90
2018-10-09T22:33:31.819Z,13.90
2018-10-09T22:35:59.529Z,13.70
2018-10-09T22:38:27.309Z,13.70
2018-10-09T22:40:54.989Z,13.70
2018-10-09T22:43:22.679Z,13.70
2018-10-09T22:45:50.428Z,13.70
2018-10-09T22:48:18.101Z,13.70
2018-10-09T22:50:45.714Z,13.70
2018-10-09T22:53:13.404Z,13.70
2018-10-09T22:55:41.077Z,13.60
2018-10-09T22:58:08.774Z,13.60
2018-10-09T23:00:36.433Z,13.50
2018-10-09T23:03:04.235Z,13.60
2018-10-09T23:05:31.982Z,13.50
2018-10-09T23:07:59.662Z,13.50
2018-10-09T23:10:27.441Z,13.40
2018-10-09T23:12:55.092Z,13.20
2018-10-09T23:15:22.749Z,13.40
2018-10-09T23:17:51.756Z,13.30
2018-10-09T23:20:19.322Z,13.30
2018-10-09T23:22:46.928Z,13.30
2018-10-09T23:25:14.542Z,13.30
2018-10-09T23:27:42.154Z,13.30
2018-10-09T23:30:10.768Z,13.30
2018-10-09T23:32:38.513Z,13.10
2018-10-09T23:35:06.181Z,13.10
2018-10-09T23:37:33.856Z,13.10
2018-10-09T23:40:01.612Z,13.00
2018-10-09T23:42:29.399Z,12.90
2018-10-09T23:44:57.105Z,13.00
2018-10-09T23:47:25.467Z,13.20
2018-10-09T23:49:53.155Z,13.20
2018-10-09T23:52:20.910Z,13.40
2018-10-09T23:54:48.526Z,13.30
2018-10-09T23:57:16.291Z,13.20
2018-10-09T23:59:43.951Z,13.30
